Time;durP1;ratioP1;P1;durP2;ratioP2;P2;SDS_P1;SDS_P2;PMS_P1;PMS_P2;Temp;Humidity;BMP_temperature;BMP_pressure;BME280_temperature;BME280_humidity;BME280_pressure;Samples;Min_cycle;Max_cycle;Signal;HPM_P1;HPM_P2
2022/07/20 00:01:17;;;;;;;0.80;0.80;;;20.90;55.00;;;;;;5016568;28;20233;-70
2022/07/20 00:03:45;;;;;;;0.83;0.70;;;20.90;53.40;;;;;;5016623;28;20179;-70
2022/07/20 00:06:12;;;;;;;0.70;0.70;;;20.90;53.80;;;;;;5016661;28;20264;-69
2022/07/20 00:11:22;;;;;;;1.07;0.53;;;20.90;54.50;;;;;;5016481;28;20389;-70
2022/07/20 00:14:06;;;;;;;0.60;0.60;;;21.00;53.10;;;;;;5016383;28;20421;-70
2022/07/20 00:16:33;;;;;;;1.00;0.67;;;20.90;52.80;;;;;;5016748;28;20839;-70
2022/07/20 00:18:59;;;;;;;0.67;0.67;;;20.80;52.80;;;;;;5016218;28;20461;-70
2022/07/20 00:21:25;;;;;;;1.03;1.03;;;20.80;51.60;;;;;;5016223;28;20555;-70
2022/07/20 00:23:51;;;;;;;0.70;0.70;;;20.80;51.00;;;;;;5016308;28;20171;-70
2022/07/20 00:26:17;;;;;;;0.83;0.83;;;20.90;51.60;;;;;;5016245;28;20404;-69
2022/07/20 00:28:43;;;;;;;0.30;0.30;;;21.20;53.70;;;;;;5016063;28;20175;-70
2022/07/20 00:31:09;;;;;;;0.43;0.43;;;21.10;51.10;;;;;;5016168;28;20503;-70
2022/07/20 00:33:35;;;;;;;0.40;0.40;;;21.10;51.40;;;;;;5016231;28;20176;-70
2022/07/20 00:36:01;;;;;;;0.50;0.50;;;21.10;51.70;;;;;;5016169;28;20461;-70
2022/07/20 00:38:27;;;;;;;0.50;0.50;;;21.20;52.80;;;;;;5015820;28;20444;-69
2022/07/20 00:40:52;;;;;;;0.50;0.50;;;21.20;53.20;;;;;;5014830;28;20485;-70
2022/07/20 00:43:18;;;;;;;0.53;0.50;;;21.20;52.30;;;;;;5015942;28;20199;-69
2022/07/20 00:45:44;;;;;;;0.50;0.50;;;21.20;52.20;;;;;;5016073;28;20646;-70
2022/07/20 00:48:10;;;;;;;0.50;0.50;;;21.20;52.00;;;;;;5015615;28;20179;-70
2022/07/20 00:50:36;;;;;;;0.50;0.50;;;21.10;52.00;;;;;;5014364;28;20442;-70
2022/07/20 00:53:02;;;;;;;0.40;0.40;;;21.10;52.00;;;;;;5015846;28;20169;-70
2022/07/20 00:55:27;;;;;;;0.40;0.40;;;21.00;50.70;;;;;;5015654;28;20410;-69
2022/07/20 00:57:53;;;;;;;0.30;0.30;;;20.90;50.20;;;;;;5015671;28;20179;-70
2022/07/20 01:00:19;;;;;;;0.80;0.80;;;20.80;52.20;;;;;;5015514;28;20195;-70
2022/07/20 01:02:45;;;;;;;0.50;0.50;;;20.80;52.60;;;;;;5014589;28;20199;-70
2022/07/20 01:05:14;;;;;;;0.63;0.47;;;20.70;52.10;;;;;;5015641;28;20825;-70
2022/07/20 01:07:48;;;;;;;0.50;0.50;;;20.70;52.50;;;;;;5015418;28;20178;-70
2022/07/20 01:10:15;;;;;;;0.77;0.77;;;20.70;51.80;;;;;;5015439;28;20437;-70
2022/07/20 01:12:47;;;;;;;0.50;0.50;;;20.70;50.80;;;;;;5015248;28;20414;-70
2022/07/20 01:15:13;;;;;;;0.40;0.40;;;20.60;49.80;;;;;;5015397;28;20796;-70
2022/07/20 01:17:38;;;;;;;0.50;0.50;;;20.60;50.40;;;;;;5015092;28;20412;-69
2022/07/20 01:20:05;;;;;;;0.43;0.43;;;20.60;50.90;;;;;;5015038;28;20671;-70
2022/07/20 01:22:31;;;;;;;0.83;0.40;;;20.70;50.50;;;;;;5015141;28;20655;-70
2022/07/20 01:24:56;;;;;;;0.40;0.40;;;20.70;51.20;;;;;;5015025;28;20425;-70
2022/07/20 01:27:22;;;;;;;0.40;0.40;;;20.80;50.80;;;;;;5014923;28;20175;-70
2022/07/20 01:29:47;;;;;;;0.67;0.60;;;20.70;52.10;;;;;;5015206;28;20193;-70
2022/07/20 01:32:13;;;;;;;0.70;0.70;;;20.70;51.80;;;;;;5014995;28;20179;-70
2022/07/20 01:34:39;;;;;;;0.53;0.53;;;20.70;51.00;;;;;;5015033;28;20228;-70
2022/07/20 01:37:04;;;;;;;0.40;0.40;;;20.70;50.10;;;;;;5014670;28;20179;-70
2022/07/20 01:39:30;;;;;;;0.50;0.50;;;20.60;48.90;;;;;;5014711;28;20229;-70
2022/07/20 01:41:55;;;;;;;0.40;0.40;;;20.60;48.40;;;;;;5015027;28;20203;-70
2022/07/20 01:44:22;;;;;;;0.70;0.70;;;20.60;49.10;;;;;;5014856;28;20201;-70
2022/07/20 01:46:49;;;;;;;0.87;0.40;;;20.60;50.00;;;;;;5014757;28;20167;-70
2022/07/20 01:49:16;;;;;;;0.40;0.40;;;20.50;50.20;;;;;;5013302;28;20434;-70
2022/07/20 01:51:42;;;;;;;0.87;0.80;;;20.50;50.00;;;;;;5014470;28;20886;-70
2022/07/20 01:54:07;;;;;;;0.50;0.40;;;20.40;51.70;;;;;;5014647;28;20404;-70
2022/07/20 01:56:33;;;;;;;0.50;0.50;;;20.30;52.70;;;;;;5014584;28;20421;-69
2022/07/20 01:58:59;;;;;;;0.60;0.50;;;20.30;52.70;;;;;;5014393;28;20285;-70
2022/07/20 02:01:24;;;;;;;0.60;0.60;;;20.30;52.00;;;;;;5014362;28;20218;-70
2022/07/20 02:03:50;;;;;;;0.40;0.40;;;20.30;49.70;;;;;;5014517;28;20506;-69
2022/07/20 02:06:16;;;;;;;0.40;0.40;;;20.30;49.30;;;;;;5014691;28;20176;-70
2022/07/20 02:08:41;;;;;;;0.50;0.50;;;20.30;50.80;;;;;;5014280;28;20261;-70
2022/07/20 02:11:07;;;;;;;0.77;0.77;;;20.40;51.10;;;;;;5014454;28;20250;-69
2022/07/20 02:13:36;;;;;;;0.97;0.97;;;20.30;53.00;;;;;;5014485;28;20184;-69
2022/07/20 02:16:17;;;;;;;0.60;0.60;;;20.30;52.90;;;;;;5014402;28;20900;-69
2022/07/20 02:18:46;;;;;;;0.67;0.67;;;20.20;51.30;;;;;;5014004;28;20813;-70
2022/07/20 02:21:12;;;;;;;0.70;0.70;;;20.10;52.60;;;;;;5014101;28;20464;-70
2022/07/20 02:23:38;;;;;;;0.87;0.87;;;20.10;50.60;;;;;;5014126;28;20448;-70
2022/07/20 02:26:04;;;;;;;0.50;0.50;;;20.10;53.20;;;;;;5014267;28;20767;-69
2022/07/20 02:28:29;;;;;;;0.73;0.73;;;20.00;51.60;;;;;;5013826;28;20420;-70
2022/07/20 02:30:55;;;;;;;0.60;0.60;;;20.00;51.70;;;;;;5013845;28;20683;-69
2022/07/20 02:33:21;;;;;;;0.60;0.60;;;20.00;52.90;;;;;;5013928;28;20172;-69
2022/07/20 02:35:47;;;;;;;0.47;0.47;;;20.10;52.80;;;;;;5013957;28;20182;-69
2022/07/20 02:38:12;;;;;;;0.70;0.60;;;20.10;53.10;;;;;;5013960;28;20253;-70
2022/07/20 02:40:38;;;;;;;1.13;0.80;;;20.00;53.90;;;;;;5013747;28;20208;-70
2022/07/20 02:43:05;;;;;;;0.77;0.60;;;19.90;55.00;;;;;;5014098;28;20199;-70
2022/07/20 02:45:31;;;;;;;0.73;0.53;;;19.90;55.40;;;;;;5013986;28;20631;-70
2022/07/20 02:48:02;;;;;;;0.73;0.73;;;19.70;55.90;;;;;;5013663;28;20495;-70
2022/07/20 02:50:37;;;;;;;1.90;0.80;;;19.70;55.60;;;;;;5013712;28;20560;-70
2022/07/20 02:53:04;;;;;;;0.77;0.70;;;19.80;55.30;;;;;;5014010;28;20413;-70
2022/07/20 02:55:30;;;;;;;0.50;0.50;;;19.80;56.00;;;;;;5013880;28;20402;-70
2022/07/20 02:57:56;;;;;;;0.83;0.67;;;19.80;55.50;;;;;;5013610;28;20764;-70
2022/07/20 03:00:22;;;;;;;0.80;0.80;;;19.80;55.10;;;;;;5013491;28;20191;-70
2022/07/20 03:02:49;;;;;;;0.50;0.50;;;19.80;54.40;;;;;;5014684;28;20404;-70
2022/07/20 03:05:15;;;;;;;1.67;0.60;;;19.70;54.70;;;;;;5017679;28;20456;-69
2022/07/20 03:07:41;;;;;;;0.40;0.40;;;19.70;55.90;;;;;;5017539;28;20448;-69
2022/07/20 03:10:08;;;;;;;2.30;0.93;;;19.70;56.00;;;;;;5017577;28;20933;-69
2022/07/20 03:12:34;;;;;;;0.63;0.57;;;19.70;56.40;;;;;;5016464;28;20442;-70
2022/07/20 03:14:59;;;;;;;0.80;0.67;;;19.60;55.70;;;;;;5017515;28;20406;-70
2022/07/20 03:17:25;;;;;;;0.50;0.50;;;19.60;56.40;;;;;;5017289;28;20429;-70
2022/07/20 03:19:51;;;;;;;0.60;0.60;;;19.60;56.00;;;;;;5017406;28;20187;-69
2022/07/20 03:22:17;;;;;;;0.70;0.70;;;19.60;56.00;;;;;;5017521;28;20645;-70
2022/07/20 03:24:43;;;;;;;0.63;0.53;;;19.60;56.60;;;;;;5017250;28;20236;-69
2022/07/20 03:27:09;;;;;;;0.50;0.50;;;19.60;57.00;;;;;;5017287;28;20787;-70
2022/07/20 03:29:35;;;;;;;0.60;0.60;;;19.60;56.40;;;;;;5017172;28;20188;-70
2022/07/20 03:32:01;;;;;;;0.50;0.50;;;19.60;56.50;;;;;;5017582;28;20882;-70
2022/07/20 03:34:27;;;;;;;0.83;0.57;;;19.60;56.80;;;;;;5017211;28;20405;-69
2022/07/20 03:36:52;;;;;;;0.63;0.63;;;19.60;57.30;;;;;;5017209;28;20415;-70
2022/07/20 03:39:18;;;;;;;0.57;0.57;;;19.60;57.20;;;;;;5016978;28;20214;-69
2022/07/20 03:41:44;;;;;;;0.60;0.60;;;19.50;56.90;;;;;;5016935;28;20201;-70
2022/07/20 03:44:10;;;;;;;0.80;0.80;;;19.50;57.70;;;;;;5016986;28;20191;-70
2022/07/20 03:46:35;;;;;;;0.70;0.70;;;19.50;57.20;;;;;;5016987;28;20573;-70
2022/07/20 03:49:01;;;;;;;0.77;0.77;;;19.50;57.90;;;;;;5016567;28;20796;-70
2022/07/20 03:51:27;;;;;;;1.07;0.97;;;19.50;58.20;;;;;;5016854;28;20175;-70
2022/07/20 03:53:53;;;;;;;0.67;0.67;;;19.60;59.10;;;;;;5016980;28;20216;-70
2022/07/20 03:56:19;;;;;;;0.77;0.70;;;19.60;58.00;;;;;;5016897;28;20410;-70
2022/07/20 03:58:44;;;;;;;0.73;0.73;;;19.60;59.20;;;;;;5016581;28;20259;-70
2022/07/20 04:01:10;;;;;;;0.97;0.83;;;19.70;59.00;;;;;;5016618;28;20198;-69
2022/07/20 04:03:36;;;;;;;0.53;0.53;;;19.70;59.00;;;;;;5016836;28;20172;-69
2022/07/20 04:06:03;;;;;;;0.70;0.70;;;19.70;59.00;;;;;;5016951;28;20172;-70
2022/07/20 04:08:28;;;;;;;0.87;0.87;;;19.70;58.00;;;;;;5016375;28;20226;-70
2022/07/20 04:10:54;;;;;;;1.00;0.80;;;19.70;58.50;;;;;;5016570;28;20906;-70
2022/07/20 04:13:20;;;;;;;0.70;0.70;;;19.80;59.70;;;;;;5016650;28;20174;-70
2022/07/20 04:15:46;;;;;;;0.67;0.67;;;19.80;59.00;;;;;;5015309;28;20185;-70
2022/07/20 04:18:11;;;;;;;2.67;1.00;;;19.80;58.70;;;;;;5016574;28;20180;-70
2022/07/20 04:20:37;;;;;;;1.67;0.87;;;19.80;58.30;;;;;;5016159;28;20196;-70
2022/07/20 04:23:03;;;;;;;1.23;0.73;;;19.90;59.30;;;;;;5016473;28;20251;-69
2022/07/20 04:25:29;;;;;;;2.70;0.70;;;20.00;59.50;;;;;;5016026;28;20180;-70
2022/07/20 04:27:54;;;;;;;1.27;1.03;;;20.00;59.30;;;;;;5016043;28;20407;-70
2022/07/20 04:30:20;;;;;;;0.57;0.57;;;20.00;61.10;;;;;;5016007;28;20237;-70
2022/07/20 04:32:46;;;;;;;1.63;1.00;;;20.10;60.00;;;;;;5016271;28;20182;-69
2022/07/20 04:35:12;;;;;;;1.07;0.77;;;20.30;60.30;;;;;;5016271;28;20172;-70
2022/07/20 04:37:38;;;;;;;0.50;0.50;;;20.30;60.90;;;;;;5016197;28;20254;-69
2022/07/20 04:40:04;;;;;;;0.97;0.70;;;20.40;61.90;;;;;;5015635;28;20523;-69
2022/07/20 04:42:31;;;;;;;0.50;0.50;;;20.50;63.20;;;;;;5014547;28;20414;-70
2022/07/20 04:44:56;;;;;;;1.00;1.00;;;20.50;64.00;;;;;;5016092;28;20484;-70
2022/07/20 04:47:22;;;;;;;1.10;1.00;;;20.70;64.40;;;;;;5015471;28;20444;-69
2022/07/20 04:49:48;;;;;;;0.67;0.67;;;20.90;64.50;;;;;;5015536;28;20213;-70
2022/07/20 04:52:13;;;;;;;1.07;0.93;;;21.20;64.90;;;;;;5015942;28;20217;-70
2022/07/20 04:54:40;;;;;;;0.93;0.90;;;21.50;63.60;;;;;;5015845;28;20172;-70
2022/07/20 04:57:05;;;;;;;1.07;1.07;;;21.80;60.60;;;;;;5015489;28;20176;-70
2022/07/20 04:59:31;;;;;;;1.70;1.03;;;21.90;61.30;;;;;;5015508;28;20424;-70
2022/07/20 05:01:57;;;;;;;1.13;0.90;;;22.20;62.00;;;;;;5015507;28;20235;-70
2022/07/20 05:04:22;;;;;;;0.90;0.80;;;22.40;62.30;;;;;;5015464;28;20216;-70
2022/07/20 05:06:48;;;;;;;0.60;0.60;;;22.60;62.50;;;;;;5015605;28;20174;-70
2022/07/20 05:09:14;;;;;;;2.03;1.93;;;22.90;60.20;;;;;;5015231;28;20190;-70
2022/07/20 05:11:40;;;;;;;1.03;0.97;;;23.00;59.40;;;;;;5015520;28;20179;-70
2022/07/20 05:14:05;;;;;;;0.77;0.77;;;23.00;58.40;;;;;;5015382;28;20568;-70
2022/07/20 05:16:31;;;;;;;0.83;0.83;;;22.90;60.10;;;;;;5015360;28;20409;-70
2022/07/20 05:18:57;;;;;;;0.70;0.70;;;23.00;61.10;;;;;;5015119;28;20671;-70
2022/07/20 05:21:23;;;;;;;0.80;0.77;;;23.40;61.40;;;;;;5015078;28;20816;-70
2022/07/20 05:23:48;;;;;;;0.90;0.90;;;23.70;60.40;;;;;;5015113;28;20614;-70
2022/07/20 05:26:14;;;;;;;0.80;0.80;;;23.70;60.30;;;;;;5014684;28;20241;-70
2022/07/20 05:28:41;;;;;;;0.60;0.60;;;23.70;61.40;;;;;;5014505;28;20177;-70
2022/07/20 05:31:08;;;;;;;1.03;0.90;;;23.50;61.10;;;;;;5012710;28;20305;-70
2022/07/20 05:33:35;;;;;;;1.13;1.00;;;23.40;62.50;;;;;;5013608;28;20410;-70
2022/07/20 05:36:02;;;;;;;1.10;1.10;;;23.50;63.40;;;;;;5013622;28;20414;-70
2022/07/20 05:38:29;;;;;;;1.27;1.17;;;23.60;62.70;;;;;;5013540;28;20414;-69
2022/07/20 05:40:55;;;;;;;0.90;0.90;;;23.80;61.60;;;;;;5013405;28;20515;-70
2022/07/20 05:43:21;;;;;;;0.73;0.73;;;24.00;62.30;;;;;;5012101;28;20420;-70
2022/07/20 05:45:47;;;;;;;0.93;0.83;;;24.20;61.10;;;;;;5013880;28;20763;-70
2022/07/20 05:48:16;;;;;;;1.40;1.30;;;24.30;60.50;;;;;;5013044;28;20403;-71
2022/07/20 05:50:42;;;;;;;0.80;0.80;;;24.30;60.70;;;;;;5012868;28;20617;-70
2022/07/20 05:53:09;;;;;;;0.90;0.80;;;24.50;60.80;;;;;;5014016;28;20953;-71
2022/07/20 05:55:35;;;;;;;1.40;1.20;;;24.70;60.80;;;;;;5013943;28;20410;-72
2022/07/20 05:58:02;;;;;;;1.03;1.00;;;25.30;59.70;;;;;;5013743;28;20473;-71
2022/07/20 06:00:28;;;;;;;1.00;1.00;;;25.70;59.00;;;;;;5011785;28;20504;-71
2022/07/20 06:02:54;;;;;;;0.77;0.70;;;26.00;58.00;;;;;;5012744;28;20974;-71
2022/07/20 06:05:19;;;;;;;2.37;0.97;;;26.10;58.10;;;;;;5013371;28;20167;-71
2022/07/20 06:07:45;;;;;;;1.37;1.00;;;26.00;58.10;;;;;;5013583;28;20204;-71
2022/07/20 06:10:11;;;;;;;0.93;0.87;;;25.80;58.30;;;;;;5013496;28;20241;-71
2022/07/20 06:12:37;;;;;;;0.90;0.80;;;25.60;58.40;;;;;;5013696;28;20197;-72
2022/07/20 06:15:03;;;;;;;1.37;0.90;;;25.50;59.30;;;;;;5013833;28;20462;-72
2022/07/20 06:17:37;;;;;;;0.80;0.80;;;25.50;60.20;;;;;;5013986;28;20542;-71
2022/07/20 06:20:10;;;;;;;1.03;1.03;;;25.60;60.40;;;;;;5013955;28;20766;-71
2022/07/20 06:22:37;;;;;;;1.00;0.83;;;25.80;59.60;;;;;;5014346;28;20406;-72
2022/07/20 06:25:04;;;;;;;0.80;0.80;;;26.00;58.90;;;;;;5014042;28;20400;-72
2022/07/20 06:27:30;;;;;;;1.23;0.90;;;26.60;58.90;;;;;;5013920;28;20407;-72
2022/07/20 06:29:56;;;;;;;1.93;1.23;;;27.30;57.80;;;;;;5013911;28;20431;-72
2022/07/20 06:32:22;;;;;;;0.80;0.80;;;27.90;56.90;;;;;;5013919;28;20403;-72
2022/07/20 06:34:48;;;;;;;0.93;0.83;;;28.20;55.10;;;;;;5013170;28;20385;-72
2022/07/20 06:37:13;;;;;;;1.40;1.17;;;28.40;55.40;;;;;;5012374;28;20168;-72
2022/07/20 06:39:39;;;;;;;1.17;0.93;;;28.80;53.90;;;;;;5013816;28;20567;-71
2022/07/20 06:42:05;;;;;;;0.90;0.90;;;29.00;53.70;;;;;;5013797;28;20192;-71
2022/07/20 06:44:31;;;;;;;1.57;1.47;;;29.10;53.40;;;;;;5012087;28;20584;-72
2022/07/20 06:46:56;;;;;;;1.03;1.03;;;29.60;53.50;;;;;;5013757;28;20167;-72
2022/07/20 06:49:22;;;;;;;1.60;1.50;;;30.40;52.30;;;;;;5012727;28;20418;-72
2022/07/20 06:51:48;;;;;;;0.73;0.67;;;31.60;50.30;;;;;;5012247;28;20175;-72
2022/07/20 06:54:13;;;;;;;1.77;1.67;;;32.20;46.80;;;;;;5014091;28;20715;-72
2022/07/20 06:56:39;;;;;;;1.40;1.30;;;32.50;46.20;;;;;;5013804;28;20221;-72
2022/07/20 06:59:04;;;;;;;1.10;1.00;;;32.90;47.00;;;;;;5013852;28;20282;-73
2022/07/20 07:01:30;;;;;;;1.23;1.00;;;33.30;45.20;;;;;;5014285;28;20270;-73
2022/07/20 07:03:56;;;;;;;0.90;0.87;;;33.80;45.00;;;;;;5013700;28;20676;-73
2022/07/20 07:06:24;;;;;;;1.00;0.70;;;34.60;41.90;;;;;;5013764;28;20167;-73
2022/07/20 07:08:49;;;;;;;0.90;0.90;;;34.60;40.60;;;;;;5013572;28;20164;-73
2022/07/20 07:11:15;;;;;;;1.73;1.63;;;35.20;40.90;;;;;;5013935;28;20417;-73
2022/07/20 07:13:41;;;;;;;1.60;1.50;;;36.10;39.70;;;;;;5014087;28;20172;-73
2022/07/20 07:16:06;;;;;;;1.07;1.07;;;36.60;37.70;;;;;;5014170;28;20171;-73
2022/07/20 07:18:32;;;;;;;1.23;1.13;;;36.90;37.50;;;;;;5013357;28;20175;-72
2022/07/20 07:20:58;;;;;;;1.40;1.30;;;36.30;35.30;;;;;;5011322;28;20242;-72
2022/07/20 07:23:23;;;;;;;1.10;1.10;;;35.90;36.40;;;;;;5012804;28;20196;-72
2022/07/20 07:25:49;;;;;;;0.97;0.80;;;35.90;37.20;;;;;;5013411;28;20187;-73
2022/07/20 07:28:15;;;;;;;1.33;1.23;;;35.60;38.10;;;;;;5011395;28;20880;-72
2022/07/20 07:30:41;;;;;;;1.07;0.77;;;35.50;38.00;;;;;;5011735;28;20187;-72
2022/07/20 07:33:08;;;;;;;0.70;0.70;;;35.40;38.50;;;;;;5013083;28;20496;-72
2022/07/20 07:35:33;;;;;;;1.03;1.03;;;35.60;37.10;;;;;;5012049;28;20864;-72
2022/07/20 07:37:59;;;;;;;1.93;1.00;;;36.10;37.00;;;;;;5013081;28;20180;-73
2022/07/20 07:40:25;;;;;;;1.53;1.03;;;36.90;35.30;;;;;;5012039;28;20940;-72
2022/07/20 07:42:50;;;;;;;0.80;0.80;;;37.50;35.90;;;;;;5012339;28;20179;-72
2022/07/20 07:45:16;;;;;;;1.30;1.10;;;38.30;33.60;;;;;;5012136;28;20211;-73
2022/07/20 07:47:43;;;;;;;1.00;1.00;;;39.10;32.60;;;;;;5012716;28;20251;-73
2022/07/20 07:50:09;;;;;;;1.37;1.13;;;39.80;31.60;;;;;;5016160;28;20195;-73
2022/07/20 07:52:35;;;;;;;1.30;1.00;;;40.20;31.00;;;;;;5014232;28;20529;-73
2022/07/20 07:55:00;;;;;;;0.90;0.90;;;40.40;31.10;;;;;;5016291;28;20217;-71
2022/07/20 07:57:27;;;;;;;1.07;1.00;;;40.50;30.80;;;;;;5015470;28;20178;-73
2022/07/20 07:59:52;;;;;;;2.00;1.90;;;40.70;31.50;;;;;;5014919;28;20195;-73
2022/07/20 08:02:18;;;;;;;1.40;1.30;;;41.10;30.40;;;;;;5015969;28;20454;-73
2022/07/20 08:04:43;;;;;;;0.93;0.93;;;41.30;30.40;;;;;;5016682;28;20183;-72
2022/07/20 08:07:09;;;;;;;1.50;1.40;;;40.80;30.60;;;;;;5016748;28;20198;-73
2022/07/20 08:09:35;;;;;;;1.03;1.03;;;41.30;30.70;;;;;;5016640;28;20584;-73
2022/07/20 08:12:00;;;;;;;1.17;1.07;;;41.50;30.80;;;;;;5016955;28;20176;-73
2022/07/20 08:14:26;;;;;;;0.70;0.70;;;41.80;31.30;;;;;;5017071;28;20182;-71
2022/07/20 08:16:51;;;;;;;1.17;1.17;;;42.30;30.60;;;;;;5016371;28;20172;-72
2022/07/20 08:19:17;;;;;;;2.00;0.97;;;42.40;30.10;;;;;;5016209;28;20593;-71
2022/07/20 08:21:43;;;;;;;1.40;1.30;;;41.60;29.80;;;;;;5016477;28;20253;-71
2022/07/20 08:24:08;;;;;;;1.37;1.07;;;41.40;30.20;;;;;;5015312;28;20266;-71
2022/07/20 08:26:34;;;;;;;1.40;1.30;;;41.60;30.30;;;;;;5016237;28;20593;-71
2022/07/20 08:29:00;;;;;;;1.40;1.30;;;40.70;30.90;;;;;;5016028;28;20199;-71
2022/07/20 08:31:26;;;;;;;2.17;2.03;;;39.60;33.00;;;;;;5016100;28;20183;-70
2022/07/20 08:33:52;;;;;;;1.43;1.33;;;38.50;33.50;;;;;;5015249;28;20180;-70
2022/07/20 08:36:17;;;;;;;1.57;1.47;;;38.20;34.90;;;;;;5015921;28;20783;-70
2022/07/20 08:38:43;;;;;;;1.70;1.60;;;38.50;34.30;;;;;;5016073;28;20613;-71
2022/07/20 08:41:09;;;;;;;4.80;2.53;;;38.20;35.10;;;;;;5016314;28;20203;-69
2022/07/20 08:43:35;;;;;;;2.07;1.93;;;37.80;35.70;;;;;;5014749;28;20172;-69
2022/07/20 08:46:02;;;;;;;1.73;1.63;;;36.90;36.90;;;;;;5015770;28;20432;-69
2022/07/20 08:48:27;;;;;;;2.83;1.77;;;35.70;38.30;;;;;;5015744;28;20178;-70
2022/07/20 08:50:53;;;;;;;2.33;2.17;;;35.60;38.60;;;;;;5015870;28;20422;-71
2022/07/20 08:53:19;;;;;;;1.60;1.50;;;36.30;39.20;;;;;;5016168;28;20180;-70
2022/07/20 08:55:46;;;;;;;2.17;1.97;;;37.00;37.90;;;;;;5016019;28;20191;-70
2022/07/20 08:58:12;;;;;;;2.57;2.37;;;36.50;38.10;;;;;;5015564;28;20413;-70
2022/07/20 09:00:38;;;;;;;2.13;1.97;;;35.80;38.90;;;;;;5014631;28;20462;-70
2022/07/20 09:03:06;;;;;;;2.60;2.40;;;35.30;39.00;;;;;;5015634;28;20418;-69
2022/07/20 09:05:37;;;;;;;2.37;2.17;;;35.10;39.40;;;;;;5015262;28;20403;-70
2022/07/20 09:08:05;;;;;;;2.10;1.93;;;34.70;40.10;;;;;;5015201;28;20410;-70
2022/07/20 09:10:35;;;;;;;2.83;2.50;;;34.20;40.50;;;;;;5013797;28;20438;-69
2022/07/20 09:13:02;;;;;;;2.30;1.70;;;33.90;41.20;;;;;;5015482;28;20399;-70
2022/07/20 09:15:38;;;;;;;2.20;2.10;;;33.70;42.30;;;;;;5014690;28;20437;-70
2022/07/20 09:18:21;;;;;;;2.13;1.90;;;33.80;43.70;;;;;;5013146;28;20456;-70
2022/07/20 09:20:53;;;;;;;2.77;2.40;;;35.20;40.40;;;;;;5014735;28;20465;-70
2022/07/20 09:23:20;;;;;;;2.03;1.93;;;36.30;38.70;;;;;;5015078;28;20441;-70
2022/07/20 09:26:11;;;;;;;1.90;1.80;;;36.90;37.70;;;;;;5014942;28;20826;-70
2022/07/20 09:28:41;;;;;;;2.57;2.37;;;36.70;38.30;;;;;;5011592;28;20434;-70
2022/07/20 09:31:21;;;;;;;2.20;2.00;;;36.90;38.40;;;;;;5015059;28;20402;-70
2022/07/20 09:33:50;;;;;;;2.63;2.43;;;36.20;37.50;;;;;;5014831;28;20407;-70
2022/07/20 09:36:18;;;;;;;2.83;1.63;;;35.60;38.80;;;;;;5014749;28;20976;-70
2022/07/20 09:38:43;;;;;;;2.43;2.23;;;35.00;38.60;;;;;;5014646;28;20464;-71
2022/07/20 09:41:27;;;;;;;2.10;1.90;;;34.80;40.60;;;;;;5014926;28;20844;-70
2022/07/20 09:43:54;;;;;;;2.53;1.80;;;34.60;39.50;;;;;;5014963;28;20167;-71
2022/07/20 09:46:30;;;;;;;2.20;2.10;;;34.40;40.70;;;;;;5014740;28;20414;-71
2022/07/20 09:49:07;;;;;;;1.40;1.30;;;34.30;38.90;;;;;;5014372;28;20430;-70
2022/07/20 09:51:37;;;;;;;2.30;2.10;;;34.30;40.80;;;;;;5014628;28;20398;-70
2022/07/20 09:54:07;;;;;;;2.20;2.00;;;34.30;40.50;;;;;;5013418;28;20502;-70
2022/07/20 09:56:34;;;;;;;1.97;1.87;;;34.30;39.40;;;;;;5014517;28;20438;-71
2022/07/20 09:59:04;;;;;;;2.03;1.93;;;34.00;39.70;;;;;;5014216;28;20426;-70
2022/07/20 10:01:33;;;;;;;2.63;2.43;;;33.30;40.60;;;;;;5014281;28;20446;-69
2022/07/20 10:04:01;;;;;;;1.77;1.67;;;32.70;40.80;;;;;;5014478;28;20413;-70
2022/07/20 10:06:28;;;;;;;2.53;1.87;;;33.00;41.70;;;;;;5014435;28;20414;-70
2022/07/20 10:08:54;;;;;;;2.40;2.20;;;33.20;42.90;;;;;;5014082;28;20399;-71
2022/07/20 10:11:22;;;;;;;1.77;1.37;;;33.10;40.90;;;;;;5014127;28;20450;-70
2022/07/20 10:13:50;;;;;;;1.60;1.50;;;33.00;40.90;;;;;;5014190;28;20793;-70
2022/07/20 10:16:33;;;;;;;2.50;2.03;;;32.40;42.20;;;;;;5014205;28;20429;-70
2022/07/20 10:18:59;;;;;;;1.67;1.57;;;32.10;42.60;;;;;;5013958;28;20515;-70
2022/07/20 10:21:37;;;;;;;1.67;1.57;;;32.40;42.60;;;;;;5013971;28;20456;-71
2022/07/20 10:24:34;;;;;;;1.93;1.83;;;33.20;41.80;;;;;;5013903;28;20453;-70
2022/07/20 10:27:03;;;;;;;1.83;1.73;;;33.70;41.00;;;;;;5014068;28;20986;-70
2022/07/20 10:29:33;;;;;;;1.37;1.27;;;34.60;40.10;;;;;;5012806;28;20414;-71
2022/07/20 10:32:14;;;;;;;2.07;1.80;;;35.40;37.60;;;;;;5012117;28;20557;-70
2022/07/20 10:34:45;;;;;;;2.57;2.37;;;35.70;37.90;;;;;;5012468;28;20442;-70
2022/07/20 10:37:37;;;;;;;1.63;1.53;;;36.20;37.10;;;;;;5013695;28;20497;-70
2022/07/20 10:40:09;;;;;;;2.93;1.97;;;36.60;36.10;;;;;;5013506;28;20465;-71
2022/07/20 10:42:46;;;;;;;2.60;2.10;;;37.40;34.70;;;;;;5013662;28;20414;-70
2022/07/20 10:45:20;;;;;;;2.23;1.87;;;37.60;35.40;;;;;;5014102;28;20394;-70
2022/07/20 10:47:55;;;;;;;2.13;1.83;;;37.00;35.90;;;;;;5013506;28;20461;-71
2022/07/20 10:50:27;;;;;;;2.60;2.40;;;37.10;36.80;;;;;;5013854;28;20440;-70
2022/07/20 10:53:09;;;;;;;2.33;2.13;;;36.50;36.80;;;;;;5013612;28;20386;-70
2022/07/20 10:55:35;;;;;;;2.07;1.87;;;35.80;36.90;;;;;;5013696;28;20391;-70
2022/07/20 10:58:06;;;;;;;2.80;2.60;;;34.60;37.60;;;;;;5013463;28;20425;-70
2022/07/20 11:00:34;;;;;;;4.07;2.70;;;33.80;39.80;;;;;;5013542;28;20210;-70
2022/07/20 11:03:27;;;;;;;1.80;1.70;;;33.10;42.20;;;;;;5012301;28;20771;-70
2022/07/20 11:06:23;;;;;;;1.70;1.60;;;32.60;42.40;;;;;;5007691;28;20419;-72
2022/07/20 11:08:57;;;;;;;2.37;2.20;;;31.80;43.60;;;;;;5013697;28;20409;-72
2022/07/20 11:11:28;;;;;;;1.47;1.37;;;31.20;42.60;;;;;;5013704;28;20407;-72
2022/07/20 11:13:55;;;;;;;1.93;1.83;;;31.10;43.10;;;;;;5013819;28;20921;-72
2022/07/20 11:16:23;;;;;;;1.90;1.80;;;31.10;42.60;;;;;;5013798;28;20498;-72
2022/07/20 11:18:54;;;;;;;2.33;2.10;;;30.90;44.30;;;;;;5013551;28;20403;-72
2022/07/20 11:21:38;;;;;;;1.60;1.50;;;30.70;44.60;;;;;;5013493;28;20794;-72
2022/07/20 11:24:24;;;;;;;2.50;2.30;;;30.20;44.60;;;;;;5014958;28;20855;-73
2022/07/20 11:26:50;;;;;;;1.97;1.87;;;30.00;45.60;;;;;;5017928;28;20416;-72
2022/07/20 11:29:16;;;;;;;1.97;1.87;;;30.00;45.50;;;;;;5017462;28;20434;-72
2022/07/20 11:31:42;;;;;;;2.30;2.10;;;29.80;45.70;;;;;;5017749;28;20467;-72
2022/07/20 11:34:08;;;;;;;2.40;2.20;;;29.90;47.00;;;;;;5017413;28;20501;-73
2022/07/20 11:36:35;;;;;;;1.70;1.60;;;29.90;46.90;;;;;;5017771;28;20229;-72
2022/07/20 11:39:07;;;;;;;1.60;1.50;;;30.20;48.10;;;;;;5016933;28;20198;-72
2022/07/20 11:41:34;;;;;;;1.93;1.67;;;30.50;47.40;;;;;;5017316;28;20457;-72
2022/07/20 11:44:01;;;;;;;2.20;2.03;;;30.80;47.50;;;;;;5017378;28;20409;-72
2022/07/20 11:46:28;;;;;;;1.33;1.23;;;30.60;48.00;;;;;;5016297;28;20416;-72
2022/07/20 11:48:56;;;;;;;3.00;2.37;;;30.60;47.90;;;;;;5016352;28;20498;-73
2022/07/20 11:51:22;;;;;;;1.73;1.63;;;30.90;47.40;;;;;;5016895;28;20500;-73
2022/07/20 11:53:48;;;;;;;1.90;1.17;;;31.00;45.60;;;;;;5017271;28;20434;-73
2022/07/20 11:56:17;;;;;;;1.57;1.47;;;31.10;46.40;;;;;;5017093;28;20294;-72
2022/07/20 11:58:45;;;;;;;1.70;1.60;;;31.20;45.10;;;;;;5016855;28;20755;-72
2022/07/20 12:01:14;;;;;;;1.33;1.33;;;31.00;43.70;;;;;;5017232;28;20457;-72
2022/07/20 12:03:47;;;;;;;1.70;1.60;;;31.10;44.90;;;;;;5017281;28;20409;-72
2022/07/20 12:06:14;;;;;;;1.57;1.47;;;31.20;44.60;;;;;;5017089;28;20430;-73
2022/07/20 12:08:40;;;;;;;1.37;1.27;;;31.30;44.20;;;;;;5016631;28;20395;-73
2022/07/20 12:11:07;;;;;;;2.60;2.00;;;31.40;45.00;;;;;;5015070;28;20415;-72
2022/07/20 12:13:50;;;;;;;2.00;1.37;;;31.40;43.10;;;;;;5015042;28;20434;-72
2022/07/20 12:16:17;;;;;;;2.53;1.07;;;31.30;42.90;;;;;;5014881;28;20472;-72
2022/07/20 12:18:52;;;;;;;1.00;1.00;;;31.30;44.70;;;;;;5015555;28;20476;-72
2022/07/20 12:21:24;;;;;;;1.53;1.43;;;31.40;43.80;;;;;;5015145;28;20892;-72
2022/07/20 12:23:51;;;;;;;1.43;1.33;;;31.30;45.00;;;;;;5016073;28;20429;-73
2022/07/20 12:26:26;;;;;;;1.60;1.50;;;31.30;44.40;;;;;;5016724;28;20413;-73
2022/07/20 12:28:55;;;;;;;1.60;1.50;;;31.40;43.70;;;;;;5015742;28;20472;-73
2022/07/20 12:31:23;;;;;;;1.33;1.23;;;31.40;45.10;;;;;;5016435;28;20501;-72
2022/07/20 12:34:14;;;;;;;1.40;1.30;;;31.30;44.60;;;;;;5016418;28;20450;-73
2022/07/20 12:36:42;;;;;;;2.50;2.33;;;31.10;44.30;;;;;;5014693;28;20887;-72
2022/07/20 12:39:13;;;;;;;1.33;1.23;;;31.00;45.40;;;;;;5015031;28;20434;-73
2022/07/20 12:41:40;;;;;;;1.60;1.50;;;31.30;46.60;;;;;;5013913;28;20461;-72
2022/07/20 12:44:38;;;;;;;1.83;1.67;;;31.40;45.50;;;;;;5014213;28;20414;-72
2022/07/20 12:47:05;;;;;;;1.90;1.80;;;31.70;45.10;;;;;;4981855;28;20418;-72
2022/07/20 12:49:31;;;;;;;1.80;1.70;;;31.90;44.70;;;;;;5015781;28;20462;-73
2022/07/20 12:51:57;;;;;;;2.60;1.87;;;32.00;44.50;;;;;;5015703;28;20445;-73
2022/07/20 12:54:24;;;;;;;1.90;1.80;;;32.10;42.90;;;;;;5015727;28;20903;-73